Nasudden, Sweden

11:30 AM CEST on August 30, 2016 (GMT +0200)
Valarvägen | | Change Station

Elev 9 ft 57.03 °N, 18.26 °E | Updated 4 minutes ago

Partly Cloudy
Partly Cloudy
62.1 °F
Feels Like 62.1 °F
N
6.8
Wind Variable Wind from WNW
Gusts 13.0 mph

Today
High -- | Low -- °F
--% Chance of Precip.
Yesterday
High -- | Low -- °F
Precip. -- in
Pressure 30.01 in
Visibility 6.2 miles
Clouds Few 2000 ft
Dew Point 55 °F
Humidity 78%
Rainfall 0.00 in
Snow Depth Not available.
5:45 AM 7:48 PM
Waning Crescent, 4% visible
METAR ESSV 300920Z 30012KT 9999 FEW020 15/10 Q1016
Pressure 30.01 in
Visibility 6.2 miles
Clouds Few 2000 ft
Dew Point 55 °F
Humidity 78%
Rainfall 0.00 in
Snow Depth Not available.
5:45 AM 7:48 PM
Waning Crescent, 4% visible
METAR ESSV 300920Z 30012KT 9999 FEW020 15/10 Q1016

10-Day Weather Forecast

×

Almanac

Astronomy

Aug. 30, 2016 Rise Set
Actual Time
Civil Twilight
Nautical Twilight
Astronomical Twilight
Moon
Length of Visible Light
Length of Day
Tomorrow will be .
, % of the Moon is Illuminated

Today's Extremes

Country Highs Country Lows

Community

WunderPhotos

Upload Photos

1,935,795 photos uploaded!

WunderBlog® & News

Nearby

Air Quality

  Air Quality AQ Index Pollutant
Not available.

Snow Depth

Station Depth Elevation

Earthquake Activity

City Distance Mag. Time & Date
Minimum magnitude displayed is 2.5.

Coastal Water Temperatures

Place Temperature

Stations

Nearby Weather Stations

Station Location Temp. Windchill Dew Point Humidity Wind Precip. Elev Updated Type